sensor_id;sensor_type;location;lat;lon;timestamp;pressure;altitude;pressure_sealevel;temperature;humidity
4836;BME280;66719;51.226;6.902;2023-06-10T00:00:18;100609.44;;;21.70;78.27
4836;BME280;66719;51.226;6.902;2023-06-10T00:02:45;100606.25;;;21.65;78.16
4836;BME280;66719;51.226;6.902;2023-06-10T00:05:11;100605.91;;;21.57;78.45
4836;BME280;66719;51.226;6.902;2023-06-10T00:07:38;100596.50;;;21.52;78.46
4836;BME280;66719;51.226;6.902;2023-06-10T00:10:05;100599.66;;;21.44;79.01
4836;BME280;66719;51.226;6.902;2023-06-10T00:12:32;100598.91;;;21.42;79.61
4836;BME280;66719;51.226;6.902;2023-06-10T00:15:04;100604.56;;;21.37;79.73
4836;BME280;66719;51.226;6.902;2023-06-10T00:17:31;100598.56;;;21.34;80.39
4836;BME280;66719;51.226;6.902;2023-06-10T00:19:59;100601.97;;;21.36;81.56
4836;BME280;66719;51.226;6.902;2023-06-10T00:22:33;100599.31;;;21.36;79.76
4836;BME280;66719;51.226;6.902;2023-06-10T00:24:59;100595.16;;;21.32;80.46
4836;BME280;66719;51.226;6.902;2023-06-10T00:27:26;100598.56;;;21.20;80.61
4836;BME280;66719;51.226;6.902;2023-06-10T00:29:57;100597.06;;;21.15;81.72
4836;BME280;66719;51.226;6.902;2023-06-10T00:32:24;100592.50;;;21.17;82.07
4836;BME280;66719;51.226;6.902;2023-06-10T00:34:51;100588.13;;;21.16;81.13
4836;BME280;66719;51.226;6.902;2023-06-10T00:37:17;100595.47;;;21.13;81.63
4836;BME280;66719;51.226;6.902;2023-06-10T00:39:44;100598.97;;;21.13;82.04
4836;BME280;66719;51.226;6.902;2023-06-10T00:42:10;100599.16;;;21.10;82.49
4836;BME280;66719;51.226;6.902;2023-06-10T00:44:37;100598.78;;;21.02;82.53
4836;BME280;66719;51.226;6.902;2023-06-10T00:47:05;100602.63;;;20.98;82.91
4836;BME280;66719;51.226;6.902;2023-06-10T00:49:32;100596.72;;;20.93;83.15
4836;BME280;66719;51.226;6.902;2023-06-10T00:51:59;100610.53;;;20.85;84.57
4836;BME280;66719;51.226;6.902;2023-06-10T00:54:26;100598.47;;;20.80;83.99
4836;BME280;66719;51.226;6.902;2023-06-10T00:56:53;100599.53;;;20.77;86.09
4836;BME280;66719;51.226;6.902;2023-06-10T00:59:20;100595.22;;;20.75;85.33
4836;BME280;66719;51.226;6.902;2023-06-10T01:01:46;100596.38;;;20.71;85.80
4836;BME280;66719;51.226;6.902;2023-06-10T01:04:13;100603.31;;;20.73;85.62
4836;BME280;66719;51.226;6.902;2023-06-10T01:07:34;100603.63;;;20.69;86.04
4836;BME280;66719;51.226;6.902;2023-06-10T01:09:40;100599.31;;;20.66;86.34
4836;BME280;66719;51.226;6.902;2023-06-10T01:12:10;100596.00;;;20.63;85.34
4836;BME280;66719;51.226;6.902;2023-06-10T01:14:38;100594.31;;;20.62;85.83
4836;BME280;66719;51.226;6.902;2023-06-10T01:17:11;100597.13;;;20.58;85.59
4836;BME280;66719;51.226;6.902;2023-06-10T01:19:38;100598.94;;;20.58;86.35
4836;BME280;66719;51.226;6.902;2023-06-10T01:22:08;100599.72;;;20.60;86.91
4836;BME280;66719;51.226;6.902;2023-06-10T01:24:34;100595.63;;;20.54;87.11
4836;BME280;66719;51.226;6.902;2023-06-10T01:27:05;100594.13;;;20.50;87.26
4836;BME280;66719;51.226;6.902;2023-06-10T01:29:46;100607.69;;;20.46;87.88
4836;BME280;66719;51.226;6.902;2023-06-10T01:32:23;100599.88;;;20.43;87.99
4836;BME280;66719;51.226;6.902;2023-06-10T01:34:54;100607.28;;;20.38;88.32
4836;BME280;66719;51.226;6.902;2023-06-10T01:37:23;100610.59;;;20.41;89.21
4836;BME280;66719;51.226;6.902;2023-06-10T01:39:51;100602.06;;;20.36;88.21
4836;BME280;66719;51.226;6.902;2023-06-10T01:42:20;100599.75;;;20.30;89.67
4836;BME280;66719;51.226;6.902;2023-06-10T01:44:47;100597.31;;;20.27;90.21
4836;BME280;66719;51.226;6.902;2023-06-10T01:47:13;100601.06;;;20.23;90.51
4836;BME280;66719;51.226;6.902;2023-06-10T01:49:40;100608.50;;;20.18;91.73
4836;BME280;66719;51.226;6.902;2023-06-10T01:52:07;100604.28;;;20.14;92.72
4836;BME280;66719;51.226;6.902;2023-06-10T01:54:33;100604.69;;;20.08;92.42
4836;BME280;66719;51.226;6.902;2023-06-10T01:57:01;100599.38;;;20.08;92.89
4836;BME280;66719;51.226;6.902;2023-06-10T01:59:28;100606.66;;;20.04;93.08
4836;BME280;66719;51.226;6.902;2023-06-10T02:01:54;100601.94;;;20.09;93.20
4836;BME280;66719;51.226;6.902;2023-06-10T02:04:21;100608.25;;;20.07;92.58
4836;BME280;66719;51.226;6.902;2023-06-10T02:06:47;100612.25;;;19.99;91.75
4836;BME280;66719;51.226;6.902;2023-06-10T02:09:14;100611.00;;;19.91;92.46
4836;BME280;66719;51.226;6.902;2023-06-10T02:11:41;100616.38;;;19.89;94.90
4836;BME280;66719;51.226;6.902;2023-06-10T02:14:07;100616.56;;;19.86;95.55
4836;BME280;66719;51.226;6.902;2023-06-10T02:16:34;100616.78;;;19.83;96.30
4836;BME280;66719;51.226;6.902;2023-06-10T02:19:01;100613.84;;;19.72;96.47
4836;BME280;66719;51.226;6.902;2023-06-10T02:21:29;100620.31;;;19.68;98.21
4836;BME280;66719;51.226;6.902;2023-06-10T02:23:56;100621.44;;;19.64;97.39
4836;BME280;66719;51.226;6.902;2023-06-10T02:26:22;100622.38;;;19.63;97.59
4836;BME280;66719;51.226;6.902;2023-06-10T02:28:49;100619.91;;;19.60;96.25
4836;BME280;66719;51.226;6.902;2023-06-10T02:31:15;100619.91;;;19.60;97.25
4836;BME280;66719;51.226;6.902;2023-06-10T02:33:44;100629.84;;;19.56;97.33
4836;BME280;66719;51.226;6.902;2023-06-10T02:36:11;100626.66;;;19.49;98.47
4836;BME280;66719;51.226;6.902;2023-06-10T02:38:39;100625.72;;;19.51;98.45
4836;BME280;66719;51.226;6.902;2023-06-10T02:41:06;100624.19;;;19.46;99.69
4836;BME280;66719;51.226;6.902;2023-06-10T02:43:33;100626.22;;;19.41;99.77
4836;BME280;66719;51.226;6.902;2023-06-10T02:46:00;100619.81;;;19.30;100.00
4836;BME280;66719;51.226;6.902;2023-06-10T02:48:26;100625.56;;;19.22;100.00
4836;BME280;66719;51.226;6.902;2023-06-10T02:50:53;100622.81;;;19.24;100.00
4836;BME280;66719;51.226;6.902;2023-06-10T02:53:22;100631.13;;;19.17;100.00
4836;BME280;66719;51.226;6.902;2023-06-10T02:55:48;100636.34;;;19.19;100.00
4836;BME280;66719;51.226;6.902;2023-06-10T02:58:15;100630.53;;;19.12;100.00
4836;BME280;66719;51.226;6.902;2023-06-10T03:00:41;100637.03;;;19.07;100.00
4836;BME280;66719;51.226;6.902;2023-06-10T03:03:09;100631.19;;;19.00;100.00
4836;BME280;66719;51.226;6.902;2023-06-10T03:05:37;100623.09;;;19.03;100.00
4836;BME280;66719;51.226;6.902;2023-06-10T03:08:03;100630.97;;;19.05;100.00
4836;BME280;66719;51.226;6.902;2023-06-10T03:10:30;100630.19;;;19.03;100.00
4836;BME280;66719;51.226;6.902;2023-06-10T03:12:59;100629.56;;;18.98;100.00
4836;BME280;66719;51.226;6.902;2023-06-10T03:15:25;100633.50;;;18.90;100.00
4836;BME280;66719;51.226;6.902;2023-06-10T03:17:52;100632.13;;;18.83;100.00
4836;BME280;66719;51.226;6.902;2023-06-10T03:20:19;100622.00;;;18.74;100.00
4836;BME280;66719;51.226;6.902;2023-06-10T03:22:45;100632.69;;;18.73;100.00
4836;BME280;66719;51.226;6.902;2023-06-10T03:25:12;100635.13;;;18.77;100.00
4836;BME280;66719;51.226;6.902;2023-06-10T03:27:42;100640.25;;;18.80;100.00
4836;BME280;66719;51.226;6.902;2023-06-10T03:30:09;100637.59;;;18.80;100.00
4836;BME280;66719;51.226;6.902;2023-06-10T03:32:36;100642.81;;;18.82;100.00
4836;BME280;66719;51.226;6.902;2023-06-10T03:35:03;100639.50;;;18.78;100.00
4836;BME280;66719;51.226;6.902;2023-06-10T03:37:30;100640.66;;;18.73;100.00
4836;BME280;66719;51.226;6.902;2023-06-10T03:39:56;100643.13;;;18.76;100.00
4836;BME280;66719;51.226;6.902;2023-06-10T03:42:23;100648.53;;;18.74;100.00
4836;BME280;66719;51.226;6.902;2023-06-10T03:44:49;100641.28;;;18.78;100.00
4836;BME280;66719;51.226;6.902;2023-06-10T03:47:16;100643.09;;;18.77;100.00
4836;BME280;66719;51.226;6.902;2023-06-10T03:49:42;100643.94;;;18.78;100.00
4836;BME280;66719;51.226;6.902;2023-06-10T03:52:09;100650.09;;;18.78;100.00
4836;BME280;66719;51.226;6.902;2023-06-10T03:54:36;100644.00;;;18.76;100.00
4836;BME280;66719;51.226;6.902;2023-06-10T03:57:02;100647.00;;;18.70;100.00
4836;BME280;66719;51.226;6.902;2023-06-10T03:59:29;100647.94;;;18.69;100.00
4836;BME280;66719;51.226;6.902;2023-06-10T04:01:56;100646.16;;;18.70;100.00
4836;BME280;66719;51.226;6.902;2023-06-10T04:04:23;100641.97;;;18.64;100.00
4836;BME280;66719;51.226;6.902;2023-06-10T04:06:49;100650.44;;;18.55;100.00
4836;BME280;66719;51.226;6.902;2023-06-10T04:09:17;100644.44;;;18.51;100.00
4836;BME280;66719;51.226;6.902;2023-06-10T04:11:43;100653.56;;;18.46;100.00
4836;BME280;66719;51.226;6.902;2023-06-10T04:14:10;100654.41;;;18.46;100.00
4836;BME280;66719;51.226;6.902;2023-06-10T04:16:36;100658.25;;;18.41;100.00
4836;BME280;66719;51.226;6.902;2023-06-10T04:19:04;100665.88;;;18.47;100.00
4836;BME280;66719;51.226;6.902;2023-06-10T04:21:31;100660.56;;;18.47;100.00
4836;BME280;66719;51.226;6.902;2023-06-10T04:23:59;100667.00;;;18.43;100.00
4836;BME280;66719;51.226;6.902;2023-06-10T04:26:26;100668.06;;;18.39;100.00
4836;BME280;66719;51.226;6.902;2023-06-10T04:28:53;100677.91;;;18.36;100.00
4836;BME280;66719;51.226;6.902;2023-06-10T04:31:20;100675.44;;;18.33;100.00
4836;BME280;66719;51.226;6.902;2023-06-10T04:33:47;100682.50;;;18.33;100.00
4836;BME280;66719;51.226;6.902;2023-06-10T04:36:13;100680.72;;;18.33;100.00
4836;BME280;66719;51.226;6.902;2023-06-10T04:38:41;100683.38;;;18.33;100.00
4836;BME280;66719;51.226;6.902;2023-06-10T04:41:07;100679.94;;;18.31;100.00
4836;BME280;66719;51.226;6.902;2023-06-10T04:43:34;100682.56;;;18.31;100.00
4836;BME280;66719;51.226;6.902;2023-06-10T04:46:00;100681.81;;;18.29;100.00
4836;BME280;66719;51.226;6.902;2023-06-10T04:48:28;100671.88;;;18.33;100.00
4836;BME280;66719;51.226;6.902;2023-06-10T04:50:54;100676.78;;;18.41;100.00
4836;BME280;66719;51.226;6.902;2023-06-10T04:53:22;100677.34;;;18.47;100.00
4836;BME280;66719;51.226;6.902;2023-06-10T04:55:49;100672.59;;;18.54;100.00
4836;BME280;66719;51.226;6.902;2023-06-10T04:58:15;100675.78;;;18.60;100.00
4836;BME280;66719;51.226;6.902;2023-06-10T05:00:42;100669.44;;;18.63;100.00
4836;BME280;66719;51.226;6.902;2023-06-10T05:03:08;100672.69;;;18.70;100.00
4836;BME280;66719;51.226;6.902;2023-06-10T05:05:35;100673.44;;;18.72;100.00
4836;BME280;66719;51.226;6.902;2023-06-10T05:08:02;100679.78;;;18.69;100.00
4836;BME280;66719;51.226;6.902;2023-06-10T05:10:32;100680.78;;;18.67;100.00
4836;BME280;66719;51.226;6.902;2023-06-10T05:13:00;100680.72;;;18.68;100.00
4836;BME280;66719;51.226;6.902;2023-06-10T05:15:27;100677.03;;;18.71;100.00
4836;BME280;66719;51.226;6.902;2023-06-10T05:17:56;100679.50;;;18.74;100.00
4836;BME280;66719;51.226;6.902;2023-06-10T05:20:23;100671.56;;;18.74;100.00
4836;BME280;66719;51.226;6.902;2023-06-10T05:22:51;100676.53;;;18.80;100.00
4836;BME280;66719;51.226;6.902;2023-06-10T05:25:18;100679.13;;;18.81;100.00
4836;BME280;66719;51.226;6.902;2023-06-10T05:27:45;100684.09;;;18.87;100.00
4836;BME280;66719;51.226;6.902;2023-06-10T05:30:11;100684.78;;;18.91;100.00
4836;BME280;66719;51.226;6.902;2023-06-10T05:32:38;100674.78;;;18.96;100.00
4836;BME280;66719;51.226;6.902;2023-06-10T05:35:05;100681.38;;;19.05;100.00
4836;BME280;66719;51.226;6.902;2023-06-10T05:37:34;100672.94;;;19.14;100.00
4836;BME280;66719;51.226;6.902;2023-06-10T05:40:03;100683.22;;;19.20;100.00
4836;BME280;66719;51.226;6.902;2023-06-10T05:42:30;100679.25;;;19.27;100.00
4836;BME280;66719;51.226;6.902;2023-06-10T05:44:57;100679.09;;;19.30;100.00
4836;BME280;66719;51.226;6.902;2023-06-10T05:47:24;100678.69;;;19.38;100.00
4836;BME280;66719;51.226;6.902;2023-06-10T05:49:50;100683.72;;;19.42;100.00
4836;BME280;66719;51.226;6.902;2023-06-10T05:52:18;100688.78;;;19.47;100.00
4836;BME280;66719;51.226;6.902;2023-06-10T05:54:44;100689.28;;;19.54;100.00
4836;BME280;66719;51.226;6.902;2023-06-10T05:57:11;100683.00;;;19.56;100.00
4836;BME280;66719;51.226;6.902;2023-06-10T05:59:37;100682.81;;;19.59;100.00
4836;BME280;66719;51.226;6.902;2023-06-10T06:02:05;100685.03;;;19.67;100.00
4836;BME280;66719;51.226;6.902;2023-06-10T06:04:31;100689.22;;;19.71;100.00
4836;BME280;66719;51.226;6.902;2023-06-10T06:06:58;100693.44;;;19.75;100.00
4836;BME280;66719;51.226;6.902;2023-06-10T06:09:25;100686.97;;;19.79;100.00
4836;BME280;66719;51.226;6.902;2023-06-10T06:11:52;100690.44;;;19.81;100.00
4836;BME280;66719;51.226;6.902;2023-06-10T06:14:18;100690.34;;;19.83;100.00
4836;BME280;66719;51.226;6.902;2023-06-10T06:16:45;100686.03;;;19.80;100.00
4836;BME280;66719;51.226;6.902;2023-06-10T06:19:11;100688.63;;;19.82;100.00
4836;BME280;66719;51.226;6.902;2023-06-10T06:21:38;100684.16;;;19.82;100.00
4836;BME280;66719;51.226;6.902;2023-06-10T06:24:05;100682.06;;;19.87;100.00
4836;BME280;66719;51.226;6.902;2023-06-10T06:26:32;100683.63;;;19.91;100.00
4836;BME280;66719;51.226;6.902;2023-06-10T06:28:58;100689.59;;;19.95;100.00
4836;BME280;66719;51.226;6.902;2023-06-10T06:31:25;100688.66;;;19.96;99.08
4836;BME280;66719;51.226;6.902;2023-06-10T06:33:51;100693.72;;;20.00;98.48
4836;BME280;66719;51.226;6.902;2023-06-10T06:36:18;100695.25;;;20.04;97.67
4836;BME280;66719;51.226;6.902;2023-06-10T06:38:45;100691.56;;;20.07;98.41
4836;BME280;66719;51.226;6.902;2023-06-10T06:41:11;100695.84;;;20.10;100.00
4836;BME280;66719;51.226;6.902;2023-06-10T06:43:38;100699.25;;;20.12;98.21
4836;BME280;66719;51.226;6.902;2023-06-10T06:46:05;100700.81;;;20.16;96.74
4836;BME280;66719;51.226;6.902;2023-06-10T06:48:31;100699.66;;;20.20;96.55
4836;BME280;66719;51.226;6.902;2023-06-10T06:50:58;100704.63;;;20.26;97.20
4836;BME280;66719;51.226;6.902;2023-06-10T06:53:26;100696.38;;;20.30;96.65
4836;BME280;66719;51.226;6.902;2023-06-10T06:55:57;100698.38;;;20.41;95.34
4836;BME280;66719;51.226;6.902;2023-06-10T06:58:23;100698.06;;;20.47;94.46
4836;BME280;66719;51.226;6.902;2023-06-10T07:00:50;100699.75;;;20.48;94.72
4836;BME280;66719;51.226;6.902;2023-06-10T07:03:16;100707.41;;;20.69;91.66
4836;BME280;66719;51.226;6.902;2023-06-10T07:05:43;100709.22;;;20.82;89.31
4836;BME280;66719;51.226;6.902;2023-06-10T07:08:09;100704.56;;;21.00;87.28
4836;BME280;66719;51.226;6.902;2023-06-10T07:10:36;100694.97;;;20.98;90.18
4836;BME280;66719;51.226;6.902;2023-06-10T07:13:03;100704.19;;;20.92;88.90
4836;BME280;66719;51.226;6.902;2023-06-10T07:15:30;100698.41;;;20.85;91.09
4836;BME280;66719;51.226;6.902;2023-06-10T07:17:56;100701.44;;;20.79;93.67
4836;BME280;66719;51.226;6.902;2023-06-10T07:20:23;100706.94;;;20.76;93.76
4836;BME280;66719;51.226;6.902;2023-06-10T07:22:49;100709.22;;;20.82;91.45
4836;BME280;66719;51.226;6.902;2023-06-10T07:25:16;100711.41;;;20.90;92.12
4836;BME280;66719;51.226;6.902;2023-06-10T07:27:42;100709.59;;;20.91;92.49
4836;BME280;66719;51.226;6.902;2023-06-10T07:30:09;100712.25;;;20.91;92.85
4836;BME280;66719;51.226;6.902;2023-06-10T07:32:37;100707.03;;;20.89;93.28
4836;BME280;66719;51.226;6.902;2023-06-10T07:35:08;100702.59;;;21.04;88.27
4836;BME280;66719;51.226;6.902;2023-06-10T07:37:35;100704.84;;;21.24;87.75
4836;BME280;66719;51.226;6.902;2023-06-10T07:40:05;100706.94;;;21.33;85.18
4836;BME280;66719;51.226;6.902;2023-06-10T07:42:35;100701.63;;;21.33;85.75
4836;BME280;66719;51.226;6.902;2023-06-10T07:45:05;100704.66;;;21.27;87.25
4836;BME280;66719;51.226;6.902;2023-06-10T07:47:33;100702.38;;;21.21;87.83
4836;BME280;66719;51.226;6.902;2023-06-10T07:50:01;100701.53;;;21.21;86.64
4836;BME280;66719;51.226;6.902;2023-06-10T07:52:27;100701.78;;;21.16;88.28
4836;BME280;66719;51.226;6.902;2023-06-10T07:54:55;100698.28;;;21.15;89.17
4836;BME280;66719;51.226;6.902;2023-06-10T07:57:21;100706.28;;;21.15;87.82
4836;BME280;66719;51.226;6.902;2023-06-10T07:59:48;100700.47;;;21.23;88.04
4836;BME280;66719;51.226;6.902;2023-06-10T08:02:15;100710.00;;;21.68;86.13
4836;BME280;66719;51.226;6.902;2023-06-10T08:04:42;100707.34;;;21.95;83.39
4836;BME280;66719;51.226;6.902;2023-06-10T08:07:08;100706.47;;;21.95;83.79
4836;BME280;66719;51.226;6.902;2023-06-10T08:09:35;100707.84;;;22.15;81.21
4836;BME280;66719;51.226;6.902;2023-06-10T08:12:02;100704.78;;;22.21;80.91
4836;BME280;66719;51.226;6.902;2023-06-10T08:14:28;100705.84;;;22.18;80.04
4836;BME280;66719;51.226;6.902;2023-06-10T08:16:55;100703.63;;;22.38;79.66
4836;BME280;66719;51.226;6.902;2023-06-10T08:19:22;100708.13;;;22.50;78.11
4836;BME280;66719;51.226;6.902;2023-06-10T08:21:48;100709.63;;;22.54;77.85
4836;BME280;66719;51.226;6.902;2023-06-10T08:24:15;100703.13;;;22.58;78.37
4836;BME280;66719;51.226;6.902;2023-06-10T08:26:44;100704.22;;;22.68;77.49
4836;BME280;66719;51.226;6.902;2023-06-10T08:29:12;100697.88;;;22.56;77.28
4836;BME280;66719;51.226;6.902;2023-06-10T08:31:43;100708.47;;;22.71;77.17
4836;BME280;66719;51.226;6.902;2023-06-10T08:34:10;100706.03;;;22.68;77.52
4836;BME280;66719;51.226;6.902;2023-06-10T08:36:36;100714.44;;;22.74;77.59
4836;BME280;66719;51.226;6.902;2023-06-10T08:39:03;100709.66;;;23.05;76.70
4836;BME280;66719;51.226;6.902;2023-06-10T08:41:35;100708.38;;;22.98;77.59
4836;BME280;66719;51.226;6.902;2023-06-10T08:44:10;100697.06;;;23.07;77.42
4836;BME280;66719;51.226;6.902;2023-06-10T08:46:40;100706.09;;;23.30;78.16
4836;BME280;66719;51.226;6.902;2023-06-10T08:49:17;100704.06;;;23.33;75.61
4836;BME280;66719;51.226;6.902;2023-06-10T08:51:45;100703.25;;;23.20;77.13
4836;BME280;66719;51.226;6.902;2023-06-10T08:54:16;100708.66;;;23.19;78.05
4836;BME280;66719;51.226;6.902;2023-06-10T08:56:49;100707.00;;;23.05;78.80
4836;BME280;66719;51.226;6.902;2023-06-10T08:59:16;100702.22;;;23.34;78.00
4836;BME280;66719;51.226;6.902;2023-06-10T09:01:43;100702.06;;;23.61;76.08
4836;BME280;66719;51.226;6.902;2023-06-10T09:04:11;100689.97;;;23.68;76.94
4836;BME280;66719;51.226;6.902;2023-06-10T09:06:38;100695.91;;;23.48;78.23
4836;BME280;66719;51.226;6.902;2023-06-10T09:09:07;100701.69;;;23.41;77.53
4836;BME280;66719;51.226;6.902;2023-06-10T09:11:33;100700.81;;;23.41;77.05
4836;BME280;66719;51.226;6.902;2023-06-10T09:14:00;100693.41;;;23.57;77.10
4836;BME280;66719;51.226;6.902;2023-06-10T09:16:26;100692.34;;;23.84;75.48
4836;BME280;66719;51.226;6.902;2023-06-10T09:18:53;100696.81;;;23.72;75.21
4836;BME280;66719;51.226;6.902;2023-06-10T09:21:25;100695.88;;;23.60;77.15
4836;BME280;66719;51.226;6.902;2023-06-10T09:23:51;100694.34;;;23.69;74.62
4836;BME280;66719;51.226;6.902;2023-06-10T09:26:18;100691.56;;;23.58;75.46
4836;BME280;66719;51.226;6.902;2023-06-10T09:28:48;100687.53;;;23.52;75.88
4836;BME280;66719;51.226;6.902;2023-06-10T09:31:16;100683.88;;;23.66;76.64
4836;BME280;66719;51.226;6.902;2023-06-10T09:33:45;100688.31;;;23.78;75.45
4836;BME280;66719;51.226;6.902;2023-06-10T09:36:21;100683.53;;;23.71;75.06
4836;BME280;66719;51.226;6.902;2023-06-10T09:38:49;100686.66;;;23.88;75.41
4836;BME280;66719;51.226;6.902;2023-06-10T09:41:17;100688.28;;;24.26;73.53
4836;BME280;66719;51.226;6.902;2023-06-10T09:43:45;100690.22;;;24.24;75.18
4836;BME280;66719;51.226;6.902;2023-06-10T09:46:19;100691.50;;;24.07;75.29
4836;BME280;66719;51.226;6.902;2023-06-10T09:48:47;100688.41;;;24.01;72.27
4836;BME280;66719;51.226;6.902;2023-06-10T09:51:15;100691.78;;;24.15;73.86
4836;BME280;66719;51.226;6.902;2023-06-10T09:53:51;100677.66;;;24.60;71.36
4836;BME280;66719;51.226;6.902;2023-06-10T09:56:18;100671.66;;;24.45;73.24
4836;BME280;66719;51.226;6.902;2023-06-10T09:58:45;100666.06;;;24.48;71.83
4836;BME280;66719;51.226;6.902;2023-06-10T10:01:14;100670.00;;;24.31;73.33
4836;BME280;66719;51.226;6.902;2023-06-10T10:03:49;100666.47;;;24.19;74.55
4836;BME280;66719;51.226;6.902;2023-06-10T10:06:17;100669.25;;;24.18;73.40
4836;BME280;66719;51.226;6.902;2023-06-10T10:08:49;100673.81;;;24.05;74.30
4836;BME280;66719;51.226;6.902;2023-06-10T10:11:17;100675.78;;;24.03;73.03
4836;BME280;66719;51.226;6.902;2023-06-10T10:13:52;100675.31;;;24.09;71.96
4836;BME280;66719;51.226;6.902;2023-06-10T10:16:34;100670.34;;;24.15;69.82
4836;BME280;66719;51.226;6.902;2023-06-10T10:19:07;100668.84;;;24.35;69.35
4836;BME280;66719;51.226;6.902;2023-06-10T10:21:39;100674.47;;;24.55;70.01
4836;BME280;66719;51.226;6.902;2023-06-10T10:26:39;100663.44;;;24.59;70.17
4836;BME280;66719;51.226;6.902;2023-06-10T10:31:42;100663.06;;;24.64;69.22
4836;BME280;66719;51.226;6.902;2023-06-10T10:34:15;100664.16;;;24.95;67.74
4836;BME280;66719;51.226;6.902;2023-06-10T10:36:44;100663.56;;;24.80;68.99
4836;BME280;66719;51.226;6.902;2023-06-10T10:39:11;100665.00;;;24.62;69.85
4836;BME280;66719;51.226;6.902;2023-06-10T10:41:39;100667.41;;;24.42;70.37
4836;BME280;66719;51.226;6.902;2023-06-10T10:44:06;100667.28;;;24.33;69.02
4836;BME280;66719;51.226;6.902;2023-06-10T10:46:44;100669.25;;;24.18;70.20
4836;BME280;66719;51.226;6.902;2023-06-10T10:49:13;100662.81;;;24.20;67.86
4836;BME280;66719;51.226;6.902;2023-06-10T10:51:55;100661.34;;;24.16;68.76
4836;BME280;66719;51.226;6.902;2023-06-10T10:54:33;100662.22;;;24.17;69.35
4836;BME280;66719;51.226;6.902;2023-06-10T10:57:28;100654.28;;;24.50;67.81
4836;BME280;66719;51.226;6.902;2023-06-10T10:59:56;100648.81;;;24.86;65.07
4836;BME280;66719;51.226;6.902;2023-06-10T11:02:45;100651.38;;;25.09;63.19
4836;BME280;66719;51.226;6.902;2023-06-10T11:05:16;100661.75;;;25.14;63.33
4836;BME280;66719;51.226;6.902;2023-06-10T11:07:54;100647.81;;;25.31;62.08
4836;BME280;66719;51.226;6.902;2023-06-10T11:11:17;100648.81;;;25.30;62.82
4836;BME280;66719;51.226;6.902;2023-06-10T11:13:22;100646.03;;;25.21;63.88
4836;BME280;66719;51.226;6.902;2023-06-10T11:15:50;100643.72;;;25.05;65.38
4836;BME280;66719;51.226;6.902;2023-06-10T11:18:27;100647.97;;;25.19;64.07
4836;BME280;66719;51.226;6.902;2023-06-10T11:20:56;100641.00;;;25.27;64.65
4836;BME280;66719;51.226;6.902;2023-06-10T11:31:23;100639.88;;;25.41;64.86
4836;BME280;66719;51.226;6.902;2023-06-10T11:33:53;100643.13;;;25.56;63.58
4836;BME280;66719;51.226;6.902;2023-06-10T11:36:20;100626.81;;;25.48;64.66
4836;BME280;66719;51.226;6.902;2023-06-10T11:38:48;100630.78;;;25.76;66.44
4836;BME280;66719;51.226;6.902;2023-06-10T11:41:17;100627.81;;;25.79;65.20
4836;BME280;66719;51.226;6.902;2023-06-10T11:43:44;100631.78;;;26.16;62.44
4836;BME280;66719;51.226;6.902;2023-06-10T11:46:12;100627.72;;;26.01;61.20
4836;BME280;66719;51.226;6.902;2023-06-10T11:48:48;100626.81;;;25.91;61.53
4836;BME280;66719;51.226;6.902;2023-06-10T11:51:14;100628.94;;;25.97;59.60
4836;BME280;66719;51.226;6.902;2023-06-10T11:53:44;100630.34;;;25.91;59.08
4836;BME280;66719;51.226;6.902;2023-06-10T11:56:10;100627.84;;;26.20;61.18
4836;BME280;66719;51.226;6.902;2023-06-10T11:58:41;100627.06;;;26.30;58.74
4836;BME280;66719;51.226;6.902;2023-06-10T12:01:10;100637.16;;;26.16;60.36
4836;BME280;66719;51.226;6.902;2023-06-10T12:03:38;100633.28;;;26.09;59.96
4836;BME280;66719;51.226;6.902;2023-06-10T12:06:06;100638.75;;;25.98;60.36
4836;BME280;66719;51.226;6.902;2023-06-10T12:08:33;100639.81;;;25.96;59.63
4836;BME280;66719;51.226;6.902;2023-06-10T12:11:02;100639.16;;;25.82;61.17
4836;BME280;66719;51.226;6.902;2023-06-10T12:13:29;100634.78;;;25.70;63.33
4836;BME280;66719;51.226;6.902;2023-06-10T12:16:06;100639.94;;;25.73;61.50
4836;BME280;66719;51.226;6.902;2023-06-10T12:18:33;100635.66;;;25.71;62.45
4836;BME280;66719;51.226;6.902;2023-06-10T12:21:00;100640.06;;;25.72;61.95
4836;BME280;66719;51.226;6.902;2023-06-10T12:23:26;100634.91;;;25.69;62.51
4836;BME280;66719;51.226;6.902;2023-06-10T12:25:54;100631.88;;;25.62;64.59
4836;BME280;66719;51.226;6.902;2023-06-10T12:28:25;100637.47;;;25.81;63.82
4836;BME280;66719;51.226;6.902;2023-06-10T12:31:06;100633.25;;;25.88;62.73
4836;BME280;66719;51.226;6.902;2023-06-10T12:33:34;100619.72;;;26.32;60.96
4836;BME280;66719;51.226;6.902;2023-06-10T12:36:00;100623.31;;;26.93;59.77
4836;BME280;66719;51.226;6.902;2023-06-10T12:38:27;100623.06;;;26.75;61.11
4836;BME280;66719;51.226;6.902;2023-06-10T12:40:53;100614.53;;;27.41;59.91
4836;BME280;66719;51.226;6.902;2023-06-10T12:43:20;100621.16;;;27.27;61.28
4836;BME280;66719;51.226;6.902;2023-06-10T12:45:47;100606.88;;;28.24;64.07
4836;BME280;66719;51.226;6.902;2023-06-10T12:48:21;100607.78;;;28.98;56.60
4836;BME280;66719;51.226;6.902;2023-06-10T12:50:52;100609.44;;;29.54;54.98
4836;BME280;66719;51.226;6.902;2023-06-10T12:53:20;100609.28;;;29.74;53.09
4836;BME280;66719;51.226;6.902;2023-06-10T12:55:47;100615.56;;;30.00;49.61
4836;BME280;66719;51.226;6.902;2023-06-10T12:58:14;100617.44;;;29.46;52.09
4836;BME280;66719;51.226;6.902;2023-06-10T13:00:40;100612.53;;;28.40;53.67
4836;BME280;66719;51.226;6.902;2023-06-10T13:03:08;100611.75;;;27.72;56.31
4836;BME280;66719;51.226;6.902;2023-06-10T13:05:36;100609.97;;;27.22;56.53
4836;BME280;66719;51.226;6.902;2023-06-10T13:08:06;100618.06;;;26.92;57.73
4836;BME280;66719;51.226;6.902;2023-06-10T13:10:33;100611.75;;;27.02;59.09
4836;BME280;66719;51.226;6.902;2023-06-10T13:13:01;100611.44;;;27.94;58.02
4836;BME280;66719;51.226;6.902;2023-06-10T13:15:28;100608.47;;;28.07;56.45